createdAt,value
2017-11-17T00:01:21.313Z,2.90
2017-11-17T00:03:48.724Z,3.00
2017-11-17T00:06:16.231Z,2.90
2017-11-17T00:08:43.670Z,2.90
2017-11-17T00:11:11.101Z,3.00
2017-11-17T00:13:39.523Z,2.90
2017-11-17T00:16:07.028Z,2.90
2017-11-17T00:18:34.485Z,2.90
2017-11-17T00:21:01.913Z,3.00
2017-11-17T00:23:29.365Z,3.00
2017-11-17T00:25:57.585Z,2.90
2017-11-17T00:28:25.080Z,2.90
2017-11-17T00:30:52.601Z,3.00
2017-11-17T00:33:20.043Z,2.90
2017-11-17T00:35:47.472Z,3.00
2017-11-17T00:38:14.926Z,3.00
2017-11-17T00:40:43.901Z,3.00
2017-11-17T00:43:11.462Z,3.00
2017-11-17T00:45:38.966Z,3.00
2017-11-17T00:48:06.433Z,2.90
2017-11-17T00:50:34.012Z,3.00
2017-11-17T00:53:02.213Z,3.10
2017-11-17T00:55:29.665Z,3.00
2017-11-17T00:57:57.228Z,3.10
2017-11-17T01:00:24.705Z,3.10
2017-11-17T01:02:52.164Z,3.10
2017-11-17T01:05:19.596Z,3.10
2017-11-17T01:07:47.097Z,3.10
2017-11-17T01:10:14.615Z,3.10
2017-11-17T01:12:42.117Z,3.10
2017-11-17T01:15:10.337Z,3.10
2017-11-17T01:17:37.801Z,3.10
2017-11-17T01:20:05.249Z,3.10
2017-11-17T01:22:32.779Z,3.10
2017-11-17T01:25:00.212Z,3.20
2017-11-17T01:27:27.652Z,3.10
2017-11-17T01:29:55.109Z,3.10
2017-11-17T01:32:22.540Z,3.20
2017-11-17T01:34:50.105Z,3.20
2017-11-17T01:37:17.565Z,3.10
2017-11-17T01:39:45.801Z,3.10
2017-11-17T01:42:13.483Z,3.00
2017-11-17T01:44:41.696Z,3.00
2017-11-17T01:47:09.170Z,3.00
2017-11-17T01:49:36.625Z,3.10
2017-11-17T01:52:04.853Z,3.10
2017-11-17T01:54:32.307Z,3.10
2017-11-17T01:56:59.835Z,3.10
2017-11-17T01:59:27.277Z,3.10
2017-11-17T02:01:54.817Z,3.10
2017-11-17T02:04:22.252Z,3.10
2017-11-17T02:06:49.729Z,3.10
2017-11-17T02:09:17.973Z,3.10
2017-11-17T02:11:45.431Z,3.10
2017-11-17T02:14:12.873Z,3.10
2017-11-17T02:16:40.405Z,3.10
2017-11-17T02:19:07.844Z,3.20
2017-11-17T02:21:35.281Z,3.20
2017-11-17T02:24:02.711Z,3.10
2017-11-17T02:26:30.157Z,3.00
2017-11-17T02:28:57.591Z,3.00
2017-11-17T02:31:25.037Z,3.00
2017-11-17T02:33:52.494Z,3.00
2017-11-17T02:36:20.045Z,3.00
2017-11-17T02:38:47.597Z,3.00
2017-11-17T02:41:15.074Z,3.00
2017-11-17T02:43:43.317Z,2.90
2017-11-17T02:46:10.769Z,2.90
2017-11-17T02:48:38.211Z,2.90
2017-11-17T02:51:06.446Z,2.90
2017-11-17T02:53:33.878Z,2.90
2017-11-17T02:56:01.326Z,2.90
2017-11-17T02:58:28.760Z,2.90
2017-11-17T03:00:56.207Z,2.80
2017-11-17T03:03:23.637Z,2.90
2017-11-17T03:05:51.111Z,2.80
2017-11-17T03:08:18.551Z,2.90
2017-11-17T03:10:45.990Z,2.90
2017-11-17T03:13:13.433Z,2.90
2017-11-17T03:15:40.865Z,2.90
2017-11-17T03:18:08.306Z,2.90
2017-11-17T03:20:35.751Z,2.90
2017-11-17T03:23:03.191Z,2.80
2017-11-17T03:25:30.621Z,2.70
2017-11-17T03:27:58.065Z,2.70
2017-11-17T03:30:25.507Z,2.70
2017-11-17T03:32:52.962Z,2.60
2017-11-17T03:35:20.405Z,2.60
2017-11-17T03:37:47.882Z,2.60
2017-11-17T03:40:16.118Z,2.70
2017-11-17T03:42:43.652Z,2.60
2017-11-17T03:45:11.102Z,2.70
2017-11-17T03:47:38.533Z,2.70
2017-11-17T03:50:05.989Z,2.70
2017-11-17T03:52:33.541Z,2.70
2017-11-17T03:55:00.985Z,2.70
2017-11-17T03:57:28.421Z,2.70
2017-11-17T03:59:55.953Z,2.70
2017-11-17T04:02:23.397Z,2.70
2017-11-17T04:04:50.844Z,2.70
2017-11-17T04:07:18.472Z,2.70
2017-11-17T04:09:45.904Z,2.70
2017-11-17T04:12:13.385Z,2.60
2017-11-17T04:14:40.832Z,2.70
2017-11-17T04:17:08.261Z,2.70
2017-11-17T04:19:35.769Z,2.80
2017-11-17T04:22:03.269Z,2.70
2017-11-17T04:24:31.479Z,2.70
2017-11-17T04:26:58.988Z,2.70
2017-11-17T04:29:27.207Z,2.80
2017-11-17T04:31:54.641Z,2.80
2017-11-17T04:34:22.093Z,2.80
2017-11-17T04:36:49.546Z,2.80
2017-11-17T04:39:16.976Z,2.80
2017-11-17T04:41:44.437Z,2.80
2017-11-17T04:44:11.891Z,2.80
2017-11-17T04:46:39.321Z,2.70
2017-11-17T04:49:06.751Z,2.70
2017-11-17T04:51:34.273Z,2.80
2017-11-17T04:54:01.699Z,2.90
2017-11-17T04:56:29.193Z,2.90
2017-11-17T04:58:56.729Z,2.70
2017-11-17T05:01:24.167Z,2.70
2017-11-17T05:03:51.621Z,2.70
2017-11-17T05:06:19.056Z,2.80
2017-11-17T05:08:46.597Z,2.80
2017-11-17T05:11:14.134Z,2.80
2017-11-17T05:13:41.571Z,2.80
2017-11-17T05:16:09.009Z,2.90
2017-11-17T05:18:36.445Z,2.80
2017-11-17T05:21:03.885Z,2.80
2017-11-17T05:23:31.319Z,2.90
2017-11-17T05:25:58.777Z,2.90
2017-11-17T05:28:26.249Z,2.90
2017-11-17T05:30:53.720Z,2.80
2017-11-17T05:33:21.909Z,2.80
2017-11-17T05:35:49.345Z,2.80
2017-11-17T05:38:16.781Z,2.80
2017-11-17T05:40:44.252Z,2.80
2017-11-17T05:43:11.681Z,2.80
2017-11-17T05:45:39.111Z,2.80
2017-11-17T05:48:06.566Z,2.80
2017-11-17T05:50:34.067Z,2.70
2017-11-17T05:53:02.265Z,2.70
2017-11-17T05:55:29.729Z,2.70
2017-11-17T05:57:57.171Z,2.70
2017-11-17T06:00:24.764Z,2.70
2017-11-17T06:02:52.254Z,2.70
2017-11-17T06:05:19.748Z,2.70
2017-11-17T06:07:47.285Z,2.70
2017-11-17T06:10:14.720Z,2.70
2017-11-17T06:12:42.933Z,2.70
2017-11-17T06:15:10.418Z,2.70
2017-11-17T06:17:37.858Z,2.70
2017-11-17T06:20:06.069Z,2.70
2017-11-17T06:22:33.506Z,2.70
2017-11-17T06:25:00.937Z,2.70
2017-11-17T06:27:29.161Z,2.80
2017-11-17T06:29:56.628Z,2.80
2017-11-17T06:32:24.866Z,2.80
2017-11-17T06:34:53.808Z,2.80
2017-11-17T06:37:21.237Z,2.80
2017-11-17T06:39:48.684Z,2.80
2017-11-17T06:42:16.214Z,2.60
2017-11-17T06:44:44.401Z,2.60
2017-11-17T06:47:11.926Z,2.60
2017-11-17T06:49:39.420Z,2.60
2017-11-17T06:52:07.631Z,2.70
2017-11-17T06:54:35.833Z,2.70
2017-11-17T06:57:03.265Z,2.60
2017-11-17T06:59:30.725Z,2.60
2017-11-17T07:01:58.165Z,2.60
2017-11-17T07:04:25.613Z,2.60
2017-11-17T07:06:54.554Z,2.80
2017-11-17T07:09:22.014Z,2.80
2017-11-17T07:11:49.453Z,2.90
2017-11-17T07:14:16.898Z,2.90
2017-11-17T07:16:44.388Z,2.90
2017-11-17T07:19:12.629Z,3.00
2017-11-17T07:21:40.066Z,3.00
2017-11-17T07:24:07.901Z,3.00
2017-11-17T07:26:35.348Z,3.10
2017-11-17T07:29:02.830Z,3.10
2017-11-17T07:31:31.089Z,2.90
2017-11-17T07:33:58.503Z,2.90
2017-11-17T07:36:25.956Z,3.00
2017-11-17T07:38:53.404Z,3.10
2017-11-17T07:41:20.880Z,3.10
2017-11-17T07:43:48.317Z,3.10
2017-11-17T07:46:15.818Z,3.10
2017-11-17T07:48:43.265Z,3.20
2017-11-17T07:51:10.710Z,3.30
2017-11-17T07:53:38.166Z,3.30
2017-11-17T07:56:05.618Z,3.40
2017-11-17T07:58:33.895Z,3.40
2017-11-17T08:01:01.402Z,3.40
2017-11-17T08:03:28.834Z,3.60
2017-11-17T08:05:56.299Z,3.80
2017-11-17T08:08:23.761Z,4.00
2017-11-17T08:10:51.969Z,4.20
2017-11-17T08:13:19.441Z,4.20
2017-11-17T08:15:46.963Z,4.30
2017-11-17T08:18:26.401Z,4.40
2017-11-17T08:20:55.401Z,4.60
2017-11-17T08:23:23.614Z,4.60
2017-11-17T08:25:51.068Z,4.60
2017-11-17T08:28:18.505Z,4.50
2017-11-17T08:30:45.937Z,4.60
2017-11-17T08:33:13.420Z,4.70
2017-11-17T08:35:40.844Z,4.60
2017-11-17T08:38:08.289Z,4.50
2017-11-17T08:40:35.755Z,4.50
2017-11-17T08:43:03.198Z,4.40
2017-11-17T08:45:31.396Z,4.30
2017-11-17T08:47:58.829Z,4.30
2017-11-17T08:50:26.261Z,4.40
2017-11-17T08:52:53.785Z,4.40
2017-11-17T08:55:21.993Z,4.50
2017-11-17T08:57:49.445Z,4.50
2017-11-17T09:00:16.905Z,4.50
2017-11-17T09:02:44.533Z,4.50
2017-11-17T09:05:12.015Z,4.60
2017-11-17T09:07:39.549Z,4.60
2017-11-17T09:10:07.704Z,4.70
2017-11-17T09:12:35.257Z,4.70
2017-11-17T09:15:02.772Z,4.80
2017-11-17T09:17:30.345Z,4.80
2017-11-17T09:19:57.782Z,4.90
2017-11-17T09:22:25.242Z,5.00
2017-11-17T09:24:52.701Z,5.10
2017-11-17T09:27:20.909Z,5.10
2017-11-17T09:29:48.349Z,5.10
2017-11-17T09:32:15.941Z,5.00
2017-11-17T09:34:44.201Z,5.10
2017-11-17T09:37:11.649Z,5.10
2017-11-17T09:39:39.179Z,5.10
2017-11-17T09:42:06.713Z,5.10
2017-11-17T09:44:34.162Z,5.10
2017-11-17T09:47:01.593Z,5.00
2017-11-17T09:49:29.039Z,5.00
2017-11-17T09:51:56.472Z,5.10
2017-11-17T09:54:23.922Z,5.10
2017-11-17T09:56:51.377Z,5.10
2017-11-17T09:59:18.812Z,5.10
2017-11-17T10:01:46.350Z,5.10
2017-11-17T10:04:13.803Z,5.10
2017-11-17T10:06:42.027Z,5.20
2017-11-17T10:09:09.466Z,5.20
2017-11-17T10:11:36.897Z,5.30
2017-11-17T10:14:04.447Z,5.30
2017-11-17T10:16:31.913Z,5.30
2017-11-17T10:18:59.412Z,5.30
2017-11-17T10:21:27.597Z,5.50
2017-11-17T10:23:55.064Z,5.50
2017-11-17T10:26:22.537Z,5.60
2017-11-17T10:28:50.737Z,5.40
2017-11-17T10:31:18.234Z,5.40
2017-11-17T10:33:45.670Z,5.20
2017-11-17T10:36:13.105Z,5.00
2017-11-17T10:38:40.624Z,5.00
2017-11-17T10:41:08.066Z,5.10
2017-11-17T10:43:35.625Z,5.10
2017-11-17T10:46:03.049Z,5.20
2017-11-17T10:48:30.472Z,5.30
2017-11-17T10:50:57.926Z,5.20
2017-11-17T10:53:25.353Z,5.20
2017-11-17T10:55:52.859Z,5.20
2017-11-17T10:58:20.309Z,5.10
2017-11-17T11:00:47.764Z,5.30
2017-11-17T11:03:16.005Z,5.00
2017-11-17T11:05:43.465Z,5.00
2017-11-17T11:08:10.882Z,5.10
2017-11-17T11:10:38.319Z,5.40
2017-11-17T11:13:05.758Z,5.60
2017-11-17T11:15:33.218Z,5.80
2017-11-17T11:18:00.653Z,6.00
2017-11-17T11:20:28.125Z,6.00
2017-11-17T11:22:56.322Z,6.30
2017-11-17T11:25:23.768Z,6.30
2017-11-17T11:27:51.214Z,6.30
2017-11-17T11:30:18.658Z,6.20
2017-11-17T11:32:46.160Z,6.20
2017-11-17T11:35:13.627Z,6.20
2017-11-17T11:37:42.629Z,6.20
2017-11-17T11:40:10.057Z,6.20
2017-11-17T11:42:37.508Z,6.20
2017-11-17T11:45:04.950Z,6.30
2017-11-17T11:47:32.511Z,6.30
2017-11-17T11:49:59.975Z,6.20
2017-11-17T11:52:27.453Z,6.20
2017-11-17T11:54:55.694Z,6.20
2017-11-17T11:57:23.892Z,6.20
2017-11-17T11:59:51.382Z,6.10
2017-11-17T12:02:18.825Z,6.20
2017-11-17T12:04:46.270Z,6.30
2017-11-17T12:07:13.817Z,6.30
2017-11-17T12:09:41.241Z,6.40
2017-11-17T12:12:08.687Z,6.40
2017-11-17T12:14:36.126Z,6.30
2017-11-17T12:17:03.597Z,6.40
2017-11-17T12:19:31.794Z,6.40
2017-11-17T12:21:59.235Z,6.30
2017-11-17T12:24:26.683Z,6.40
2017-11-17T12:26:54.106Z,6.30
2017-11-17T12:29:21.648Z,6.20
2017-11-17T12:31:49.839Z,6.30
2017-11-17T12:34:17.282Z,6.40
2017-11-17T12:36:44.725Z,6.40
2017-11-17T12:39:12.176Z,6.50
2017-11-17T12:41:39.612Z,6.50
2017-11-17T12:44:07.059Z,6.20
2017-11-17T12:46:34.571Z,6.30
2017-11-17T12:49:02.049Z,6.40
2017-11-17T12:51:29.616Z,6.40
2017-11-17T12:53:57.064Z,6.50
2017-11-17T12:56:24.554Z,6.50
2017-11-17T12:58:52.027Z,6.50
2017-11-17T13:01:19.466Z,6.50
2017-11-17T13:03:46.920Z,6.60
2017-11-17T13:06:14.360Z,6.60
2017-11-17T13:08:42.103Z,6.60
2017-11-17T13:11:09.539Z,6.50
2017-11-17T13:13:37.036Z,6.50
2017-11-17T13:16:05.244Z,6.50
2017-11-17T13:18:32.736Z,6.40
2017-11-17T13:21:00.963Z,6.30
2017-11-17T13:23:28.420Z,6.30
2017-11-17T13:25:55.882Z,6.30
2017-11-17T13:28:24.082Z,5.90
2017-11-17T13:30:51.520Z,5.90
2017-11-17T13:33:18.970Z,5.50
2017-11-17T13:35:46.419Z,5.60
2017-11-17T13:38:13.850Z,5.30
2017-11-17T13:40:41.385Z,5.20
2017-11-17T13:43:08.921Z,5.20
2017-11-17T13:45:36.369Z,5.40
2017-11-17T13:48:03.881Z,5.40
2017-11-17T13:50:31.393Z,5.40
2017-11-17T13:52:58.826Z,5.50
2017-11-17T13:55:26.344Z,5.40
2017-11-17T13:57:53.807Z,5.50
2017-11-17T14:00:21.250Z,5.20
2017-11-17T14:02:48.681Z,5.00
2017-11-17T14:05:16.294Z,5.00
2017-11-17T14:07:44.525Z,5.20
2017-11-17T14:10:11.991Z,5.20
2017-11-17T14:12:39.521Z,5.00
2017-11-17T14:15:07.067Z,5.10
2017-11-17T14:17:34.508Z,4.80
2017-11-17T14:20:01.941Z,4.90
2017-11-17T14:22:29.414Z,5.00
2017-11-17T14:24:57.625Z,4.90
2017-11-17T14:27:25.082Z,4.90
2017-11-17T14:29:52.508Z,4.80
2017-11-17T14:32:19.959Z,4.70
2017-11-17T14:34:47.389Z,4.70
2017-11-17T14:37:14.835Z,4.50
2017-11-17T14:39:42.260Z,4.40
2017-11-17T14:42:09.729Z,4.60
2017-11-17T14:44:37.176Z,4.60
2017-11-17T14:47:04.645Z,4.60
2017-11-17T14:49:32.085Z,4.50
2017-11-17T14:51:59.521Z,4.40
2017-11-17T14:54:26.968Z,4.50
2017-11-17T14:56:54.500Z,4.50
2017-11-17T14:59:21.971Z,4.50
2017-11-17T15:01:49.476Z,4.60
2017-11-17T15:04:16.909Z,4.40
2017-11-17T15:06:44.366Z,4.50
2017-11-17T15:09:11.821Z,4.50
2017-11-17T15:11:39.265Z,4.50
2017-11-17T15:14:06.780Z,4.60
2017-11-17T15:16:34.329Z,4.60
2017-11-17T15:19:01.763Z,4.70
2017-11-17T15:21:29.229Z,4.60
2017-11-17T15:23:56.686Z,4.60
2017-11-17T15:26:24.142Z,4.70
2017-11-17T15:28:51.551Z,4.60
2017-11-17T15:31:19.002Z,4.60
2017-11-17T15:33:46.445Z,4.70
2017-11-17T15:36:13.893Z,4.80
2017-11-17T15:38:41.342Z,4.50
2017-11-17T15:41:08.783Z,4.50
2017-11-17T15:43:36.229Z,4.50
2017-11-17T15:46:03.761Z,4.40
2017-11-17T15:48:31.209Z,4.40
2017-11-17T15:50:58.853Z,4.60
2017-11-17T15:53:26.350Z,4.60
2017-11-17T15:55:53.786Z,4.60
2017-11-17T15:58:21.253Z,4.50
2017-11-17T16:00:48.704Z,4.50
2017-11-17T16:03:16.172Z,4.50
2017-11-17T16:05:43.618Z,4.70
2017-11-17T16:08:11.052Z,4.70
2017-11-17T16:10:38.611Z,4.70
2017-11-17T16:13:06.057Z,4.70
2017-11-17T16:15:33.558Z,4.70
2017-11-17T16:18:00.986Z,4.70
2017-11-17T16:20:28.529Z,4.70
2017-11-17T16:22:55.965Z,4.70
2017-11-17T16:25:23.573Z,4.50
2017-11-17T16:27:51.013Z,4.40
2017-11-17T16:30:18.464Z,4.40
2017-11-17T16:32:46.737Z,4.30
2017-11-17T16:35:14.939Z,4.40
2017-11-17T16:37:42.454Z,4.30
2017-11-17T16:40:09.904Z,4.30
2017-11-17T16:42:37.363Z,4.20
2017-11-17T16:45:04.814Z,4.20
2017-11-17T16:47:32.274Z,4.20
2017-11-17T16:49:59.713Z,4.30
2017-11-17T16:52:27.222Z,4.10
2017-11-17T16:54:54.691Z,4.20
2017-11-17T16:57:22.164Z,4.30
2017-11-17T16:59:50.386Z,4.30
2017-11-17T17:02:17.850Z,4.20
2017-11-17T17:04:45.299Z,4.20
2017-11-17T17:07:12.839Z,4.10
2017-11-17T17:09:40.261Z,4.10
2017-11-17T17:12:07.817Z,4.30
2017-11-17T17:14:35.301Z,4.20
2017-11-17T17:17:02.902Z,4.30
2017-11-17T17:19:30.335Z,4.40
2017-11-17T17:21:57.774Z,4.30
2017-11-17T17:24:25.234Z,4.30
2017-11-17T17:26:52.805Z,4.30
2017-11-17T17:29:20.237Z,4.30
2017-11-17T17:31:47.782Z,4.30
2017-11-17T17:34:15.215Z,4.40
2017-11-17T17:36:42.666Z,4.50
2017-11-17T17:39:10.134Z,4.60
2017-11-17T17:41:37.686Z,4.70
2017-11-17T17:44:05.942Z,4.80
2017-11-17T17:46:33.395Z,4.80
2017-11-17T17:49:02.122Z,4.80
2017-11-17T17:51:29.574Z,4.80
2017-11-17T17:53:57.006Z,4.70
2017-11-17T17:56:24.450Z,4.60
2017-11-17T17:58:51.898Z,4.40
2017-11-17T18:01:19.379Z,4.40
2017-11-17T18:03:47.582Z,4.30
2017-11-17T18:06:15.009Z,4.30
2017-11-17T18:08:42.451Z,4.30
2017-11-17T18:11:09.922Z,4.30
2017-11-17T18:13:37.386Z,4.40
2017-11-17T18:16:04.938Z,4.40
2017-11-17T18:18:32.489Z,4.50
2017-11-17T18:21:00.730Z,4.60
2017-11-17T18:23:28.222Z,4.60
2017-11-17T18:25:56.409Z,4.70
2017-11-17T18:28:23.902Z,4.70
2017-11-17T18:30:51.321Z,4.70
2017-11-17T18:33:18.824Z,4.70
2017-11-17T18:35:46.246Z,4.60
2017-11-17T18:38:13.659Z,4.70
2017-11-17T18:40:41.101Z,4.70
2017-11-17T18:43:08.633Z,4.70
2017-11-17T18:45:36.109Z,4.80
2017-11-17T18:48:03.565Z,4.70
2017-11-17T18:50:30.998Z,4.80
2017-11-17T18:52:58.510Z,4.70
2017-11-17T18:55:26.929Z,4.60
2017-11-17T18:57:54.421Z,4.60
2017-11-17T19:00:21.932Z,4.40
2017-11-17T19:02:50.105Z,4.20
2017-11-17T19:05:17.570Z,4.20
2017-11-17T19:07:44.982Z,4.30
2017-11-17T19:10:12.500Z,4.30
2017-11-17T19:12:39.912Z,4.30
2017-11-17T19:15:07.392Z,4.30
2017-11-17T19:17:34.765Z,4.30
2017-11-17T19:20:02.218Z,4.30
2017-11-17T19:22:29.838Z,4.40
2017-11-17T19:24:57.272Z,4.30
2017-11-17T19:27:24.769Z,4.30
2017-11-17T19:29:52.982Z,4.40
2017-11-17T19:32:21.516Z,4.40
2017-11-17T19:34:49.786Z,4.40
2017-11-17T19:37:17.326Z,4.40
2017-11-17T19:39:45.537Z,4.60
2017-11-17T19:42:13.150Z,4.60
2017-11-17T19:44:40.672Z,4.60
2017-11-17T19:47:08.853Z,4.80
2017-11-17T19:49:36.302Z,4.70
2017-11-17T19:52:03.885Z,4.80
2017-11-17T19:54:31.411Z,4.80
2017-11-17T19:56:58.879Z,4.80
2017-11-17T19:59:26.273Z,4.90
2017-11-17T20:01:53.728Z,4.90
2017-11-17T20:04:21.158Z,5.00
2017-11-17T20:06:48.696Z,5.00
2017-11-17T20:09:16.188Z,5.00
2017-11-17T20:11:43.881Z,5.00
2017-11-17T20:14:11.409Z,5.00
2017-11-17T20:16:39.667Z,4.90
2017-11-17T20:19:07.853Z,4.90
2017-11-17T20:21:35.339Z,4.90
2017-11-17T20:24:02.853Z,4.90
2017-11-17T20:26:30.460Z,4.80
2017-11-17T20:28:57.907Z,4.90
2017-11-17T20:31:26.185Z,5.00
2017-11-17T20:33:54.396Z,5.00
2017-11-17T20:36:21.892Z,5.00
2017-11-17T20:38:49.353Z,5.10
2017-11-17T20:41:16.847Z,4.90
2017-11-17T20:43:44.305Z,4.70
2017-11-17T20:46:12.573Z,4.80
2017-11-17T20:48:40.810Z,4.80
2017-11-17T20:51:08.247Z,4.80
2017-11-17T20:53:35.739Z,4.90
2017-11-17T20:56:03.219Z,5.00
2017-11-17T20:58:30.719Z,5.00
2017-11-17T21:00:58.153Z,5.00
2017-11-17T21:03:25.634Z,5.10
2017-11-17T21:05:53.073Z,5.10
2017-11-17T21:08:20.528Z,5.20
2017-11-17T21:10:47.966Z,5.10
2017-11-17T21:13:15.430Z,5.20
2017-11-17T21:15:42.924Z,5.20
2017-11-17T21:18:10.353Z,5.20
2017-11-17T21:20:37.811Z,5.20
2017-11-17T21:23:05.264Z,4.90
2017-11-17T21:25:32.710Z,4.90
2017-11-17T21:28:00.135Z,4.80
2017-11-17T21:30:27.585Z,4.70
2017-11-17T21:32:55.058Z,4.80
2017-11-17T21:35:22.499Z,4.80
2017-11-17T21:37:50.126Z,4.90
2017-11-17T21:40:17.607Z,4.90
2017-11-17T21:42:45.077Z,4.90
2017-11-17T21:45:12.532Z,4.90
2017-11-17T21:47:40.005Z,4.90
2017-11-17T21:50:07.441Z,4.90
2017-11-17T21:52:34.883Z,4.90
2017-11-17T21:55:02.430Z,4.80
2017-11-17T21:57:29.875Z,4.70
2017-11-17T21:59:57.419Z,4.70
2017-11-17T22:02:25.077Z,4.50
2017-11-17T22:04:52.534Z,4.40
2017-11-17T22:07:19.962Z,4.20
2017-11-17T22:09:47.406Z,4.20
2017-11-17T22:12:14.912Z,4.30
2017-11-17T22:14:42.371Z,4.30
2017-11-17T22:17:09.810Z,4.50
2017-11-17T22:19:37.252Z,4.50
2017-11-17T22:22:04.686Z,4.60
2017-11-17T22:24:32.135Z,4.70
2017-11-17T22:26:59.613Z,4.70
2017-11-17T22:29:28.222Z,4.60
2017-11-17T22:31:56.430Z,4.50
2017-11-17T22:34:23.893Z,4.50
2017-11-17T22:36:51.324Z,4.50
2017-11-17T22:39:18.796Z,4.50
2017-11-17T22:41:47.007Z,4.30
2017-11-17T22:44:14.905Z,4.30
2017-11-17T22:46:42.391Z,4.40
2017-11-17T22:49:09.882Z,4.50
2017-11-17T22:51:37.323Z,4.50
2017-11-17T22:54:04.774Z,4.60
2017-11-17T22:56:32.217Z,4.60
2017-11-17T22:59:00.044Z,4.70
2017-11-17T23:01:27.481Z,4.70
2017-11-17T23:03:54.937Z,4.70
2017-11-17T23:06:22.385Z,4.80
2017-11-17T23:08:49.905Z,4.80
2017-11-17T23:11:17.348Z,4.80
2017-11-17T23:13:44.788Z,4.90
2017-11-17T23:16:12.238Z,4.90
2017-11-17T23:18:39.692Z,4.90
2017-11-17T23:21:07.151Z,5.00
2017-11-17T23:23:34.589Z,5.00
2017-11-17T23:26:02.041Z,5.00
2017-11-17T23:28:29.491Z,5.00
2017-11-17T23:30:56.926Z,5.00
2017-11-17T23:33:24.370Z,4.80
2017-11-17T23:35:51.826Z,4.70
2017-11-17T23:38:19.338Z,4.60
2017-11-17T23:40:46.794Z,4.50
2017-11-17T23:43:14.253Z,4.50
2017-11-17T23:45:42.461Z,4.40
2017-11-17T23:48:09.894Z,4.40
2017-11-17T23:50:37.327Z,4.40
2017-11-17T23:53:04.778Z,4.40
2017-11-17T23:55:32.227Z,4.40
